Time;durP1;ratioP1;P1;durP2;ratioP2;P2;SDS_P1;SDS_P2;PMS_P1;PMS_P2;Temp;Humidity;BMP_temperature;BMP_pressure;BME280_temperature;BME280_humidity;BME280_pressure;Samples;Min_cycle;Max_cycle;Signal;HPM_P1;HPM_P2
2022/04/14 00:01:19;;;;;;;26.90;12.90;;;;;;;8.79;47.68;99245.66;109131;1279;22370;-81
2022/04/14 00:04:54;;;;;;;27.20;12.10;;;;;;;8.75;47.89;99245.80;109529;1277;22619;-81
2022/04/14 00:07:06;;;;;;;26.10;11.70;;;;;;;8.65;47.92;99242.48;109447;1278;22354;-81
2022/04/14 00:09:41;;;;;;;23.40;10.90;;;;;;;8.59;48.13;99241.46;109084;1278;22375;-81
2022/04/14 00:12:28;;;;;;;24.30;11.10;;;;;;;8.55;48.22;99235.48;109423;1278;22416;-82
2022/04/14 00:15:27;;;;;;;;;;;;;;;;;;;;;
2022/04/14 00:18:27;;;;;;;23.40;10.00;;;;;;;8.54;48.37;99237.10;109560;1277;22452;-83
2022/04/14 00:21:04;;;;;;;25.30;10.90;;;;;;;8.56;48.28;99231.86;109451;1278;22371;-81
2022/04/14 00:24:14;;;;;;;24.40;11.00;;;;;;;8.53;48.36;99233.80;108875;1278;22493;-82
2022/04/14 00:27:07;;;;;;;26.70;11.90;;;;;;;8.49;48.20;99231.92;109441;1277;22378;-82
2022/04/14 00:29:47;;;;;;;;;;;;;;;;;;;;;
2022/04/14 00:32:27;;;;;;;23.20;12.10;;;;;;;8.37;48.33;99242.59;109408;1277;22985;-82
2022/04/14 00:35:14;;;;;;;;;;;;;;;;;;;;;
2022/04/14 00:38:09;;;;;;;24.70;11.80;;;;;;;8.38;48.54;99242.85;109215;1278;22361;-82
2022/04/14 00:41:01;;;;;;;25.60;11.80;;;;;;;8.44;48.66;99245.53;109402;1278;22169;-82
2022/04/14 00:43:40;;;;;;;22.20;10.90;;;;;;;8.39;48.71;99239.80;109402;1277;22392;-81
2022/04/14 00:46:55;;;;;;;;;;;;;;;;;;;;;
2022/04/14 00:49:52;;;;;;;21.70;10.50;;;;;;;8.33;48.90;99247.61;109580;1278;22538;-82
2022/04/14 00:52:26;;;;;;;21.10;10.50;;;;;;;8.26;48.97;99248.72;109587;1277;22329;-82
2022/04/14 00:55:04;;;;;;;21.10;10.30;;;;;;;8.20;49.10;99252.60;109186;1277;22352;-82
2022/04/14 00:58:03;;;;;;;;;;;;;;;;;;;;;
2022/04/14 01:01:12;;;;;;;;;;;;;;;;;;;;;
2022/04/14 01:03:45;;;;;;;21.30;9.20;;;;;;;7.95;49.38;99247.16;109409;1277;22405;-82
2022/04/14 01:06:15;;;;;;;23.10;10.20;;;;;;;7.90;49.16;99251.21;109436;1277;22459;-82
2022/04/14 01:09:16;;;;;;;19.70;9.80;;;;;;;7.88;49.46;99248.66;109600;1277;22394;-82
2022/04/14 01:11:31;;;;;;;20.80;9.40;;;;;;;7.84;49.74;99243.70;109429;1277;22360;-81
2022/04/14 01:14:00;;;;;;;23.60;11.00;;;;;;;7.84;49.85;99248.72;109602;1277;23142;-82
2022/04/14 01:16:48;;;;;;;;;;;;;;;;;;;;;
2022/04/14 01:19:21;;;;;;;21.40;10.00;;;;;;;7.89;49.58;99242.41;109329;1277;22128;-82
2022/04/14 01:22:13;;;;;;;;;;;;;;;;;;;;;
2022/04/14 01:24:42;;;;;;;18.70;8.60;;;;;;;8.10;49.49;99240.23;109220;1277;23076;-82
2022/04/14 01:27:09;;;;;;;19.90;8.70;;;;;;;8.21;49.32;99242.28;109380;1278;22575;-82
2022/04/14 01:29:47;;;;;;;;;;;;;;;;;;;;;
2022/04/14 01:32:15;;;;;;;22.00;9.50;;;;;;;8.18;49.43;99241.55;109107;1279;22959;-81
2022/04/14 01:35:22;;;;;;;20.20;9.30;;;;;;;8.10;49.49;99236.90;109245;1278;22176;-82
2022/04/14 01:38:07;;;;;;;;;;;;;;;;;;;;;
2022/04/14 01:40:36;;;;;;;17.40;8.50;;;;;;;7.95;49.47;99232.30;109566;1277;22344;-82
2022/04/14 01:43:03;;;;;;;19.30;9.20;;;;;;;7.93;49.64;99228.85;109308;1277;22152;-81
2022/04/14 01:45:30;;;;;;;20.60;9.10;;;;;;;7.90;49.77;99231.00;109280;1278;22366;-81
2022/04/14 01:48:04;;;;;;;20.80;8.80;;;;;;;7.96;49.93;99235.80;109178;1277;23169;-81
2022/04/14 01:50:54;;;;;;;17.20;7.90;;;;;;;8.05;49.84;99234.00;109524;1277;22416;-81
2022/04/14 01:53:21;;;;;;;17.70;7.80;;;;;;;8.06;49.82;99227.73;109193;1278;22331;-81
2022/04/14 01:55:48;;;;;;;19.90;8.80;;;;;;;8.12;49.81;99230.40;109376;1277;23153;-82
2022/04/14 01:58:15;;;;;;;18.00;8.50;;;;;;;8.14;49.79;99225.89;109077;1279;22438;-82
2022/04/14 02:00:42;;;;;;;20.20;9.10;;;;;;;8.10;49.58;99228.88;109293;1278;22137;-82
2022/04/14 02:03:11;;;;;;;20.40;9.70;;;;;;;8.03;49.71;99231.48;109391;1278;22479;-81
2022/04/14 02:05:48;;;;;;;18.80;8.70;;;;;;;7.96;49.77;99223.58;109228;1277;22423;-81
2022/04/14 02:08:17;;;;;;;16.40;7.40;;;;;;;7.96;49.96;99223.55;109326;1277;22370;-81
2022/04/14 02:10:44;;;;;;;19.20;8.20;;;;;;;7.99;49.84;99224.77;109084;1277;22480;-82
2022/04/14 02:13:15;;;;;;;15.30;7.40;;;;;;;7.99;49.97;99220.56;109200;1277;22370;-82
2022/04/14 02:16:29;;;;;;;14.50;7.70;;;;;;;8.01;49.99;99226.27;109128;1279;22234;-82
2022/04/14 02:19:35;;;;;;;17.60;7.80;;;;;;;8.01;49.88;99222.00;109419;1277;23481;-81
2022/04/14 02:22:03;;;;;;;20.40;8.10;;;;;;;8.06;50.05;99225.05;109169;1279;22434;-82
2022/04/14 02:24:32;;;;;;;21.70;8.50;;;;;;;8.05;50.03;99221.96;109088;1279;22381;-81
2022/04/14 02:27:04;;;;;;;16.90;8.30;;;;;;;8.03;50.06;99221.00;109307;1278;22487;-81
2022/04/14 02:29:51;;;;;;;19.80;8.20;;;;;;;7.96;49.83;99217.54;109437;1277;22385;-82
2022/04/14 02:32:28;;;;;;;19.00;8.50;;;;;;;7.92;50.01;99224.33;109401;1278;22337;-81
2022/04/14 02:34:55;;;;;;;20.60;8.80;;;;;;;7.88;50.08;99216.40;109587;1277;23125;-81
2022/04/14 02:37:24;;;;;;;20.30;8.50;;;;;;;7.90;50.27;99214.67;109569;1277;22359;-81
2022/04/14 02:39:51;;;;;;;16.80;8.50;;;;;;;7.92;50.18;99215.98;109395;1277;23164;-81
2022/04/14 02:42:18;;;;;;;19.10;8.60;;;;;;;7.88;50.13;99214.98;109580;1277;22403;-81
2022/04/14 02:44:50;;;;;;;19.40;9.00;;;;;;;7.85;50.13;99217.45;109021;1277;22255;-80
2022/04/14 02:47:17;;;;;;;20.20;9.10;;;;;;;7.79;50.20;99214.95;109579;1277;22319;-81
2022/04/14 02:49:57;;;;;;;19.90;9.40;;;;;;;7.78;50.35;99217.48;109288;1277;22358;-81
2022/04/14 02:52:46;;;;;;;21.70;9.50;;;;;;;7.70;50.36;99213.14;109588;1277;22439;-81
2022/04/14 02:55:28;;;;;;;22.20;9.40;;;;;;;7.66;50.55;99212.19;109376;1277;22348;-80
2022/04/14 02:58:03;;;;;;;19.00;8.70;;;;;;;7.63;50.44;99212.86;109229;1279;22466;-81
2022/04/14 03:00:49;;;;;;;20.80;9.30;;;;;;;7.61;50.78;99215.29;109342;1277;22421;-80
2022/04/14 03:03:23;;;;;;;23.80;9.90;;;;;;;7.55;50.21;99214.04;109573;1277;22429;-80
2022/04/14 03:05:58;;;;;;;19.00;8.70;;;;;;;7.50;50.55;99207.05;109532;1276;22455;-81
2022/04/14 03:08:30;;;;;;;26.30;8.90;;;;;;;7.58;50.92;99213.33;109134;1277;22329;-79
2022/04/14 03:11:20;;;;;;;21.10;8.90;;;;;;;7.68;50.80;99207.10;109201;1277;22413;-80
2022/04/14 03:14:07;;;;;;;19.00;8.50;;;;;;;7.86;51.04;99200.39;109462;1277;22577;-80
2022/04/14 03:16:36;;;;;;;20.50;8.20;;;;;;;7.95;50.73;99193.81;109358;1277;23032;-79
2022/04/14 03:19:06;;;;;;;20.10;9.00;;;;;;;7.88;50.79;99195.28;109566;1277;23073;-79
2022/04/14 03:21:36;;;;;;;18.00;8.30;;;;;;;7.76;50.85;99189.81;109248;1277;22388;-80
2022/04/14 03:24:04;;;;;;;20.30;8.40;;;;;;;7.70;50.70;99188.05;109125;1279;22436;-79
2022/04/14 03:26:31;;;;;;;17.80;8.50;;;;;;;7.66;50.99;99190.54;109566;1277;22363;-79
2022/04/14 03:29:03;;;;;;;19.70;8.70;;;;;;;7.67;50.84;99187.48;109163;1277;22475;-79
2022/04/14 03:31:36;;;;;;;19.10;8.70;;;;;;;7.77;51.28;99187.06;109240;1277;22466;-80
2022/04/14 03:34:30;;;;;;;;;;;;;;;;;;;;;
2022/04/14 03:37:08;;;;;;;19.40;8.10;;;;;;;8.00;51.27;99175.59;109305;1279;22475;-80
2022/04/14 03:39:57;;;;;;;25.00;9.20;;;;;;;8.10;51.09;99169.89;109385;1278;22381;-80
2022/04/14 03:42:26;;;;;;;20.10;8.60;;;;;;;8.17;51.09;99169.61;109232;1280;23250;-80
2022/04/14 03:45:01;;;;;;;18.20;8.20;;;;;;;8.25;51.21;99170.93;109359;1279;23104;-80
2022/04/14 03:47:37;;;;;;;20.30;8.30;;;;;;;8.29;51.18;99165.19;109330;1278;22505;-80
2022/04/14 03:50:06;;;;;;;18.90;8.40;;;;;;;8.36;51.11;99163.84;109393;1279;22273;-80
2022/04/14 03:52:44;;;;;;;22.20;8.70;;;;;;;8.44;51.05;99169.08;109055;1281;22460;-80
2022/04/14 03:55:32;;;;;;;29.10;9.30;;;;;;;8.50;51.06;99167.66;109322;1279;22468;-80
2022/04/14 03:58:02;;;;;;;21.40;8.90;;;;;;;8.57;50.92;99167.71;109231;1280;22427;-81
2022/04/14 04:01:38;;;;;;;20.00;8.40;;;;;;;8.62;51.02;99163.73;109403;1279;22311;-80
2022/04/14 04:04:13;;;;;;;21.50;8.60;;;;;;;8.64;50.83;99170.29;109348;1279;22567;-80
2022/04/14 04:06:43;;;;;;;23.60;8.80;;;;;;;8.60;50.92;99163.13;109403;1278;22328;-80
2022/04/14 04:09:16;;;;;;;20.60;9.40;;;;;;;8.61;50.92;99171.21;109322;1279;22408;-80
2022/04/14 04:12:21;;;;;;;20.90;9.80;;;;;;;8.69;50.86;99167.13;109332;1279;22359;-81
2022/04/14 04:14:57;;;;;;;22.60;9.30;;;;;;;8.80;50.87;99171.27;109223;1280;22480;-80
2022/04/14 04:18:01;;;;;;;29.30;8.80;;;;;;;8.84;50.79;99171.53;109310;1280;22480;-81
2022/04/14 04:21:02;;;;;;;;;;;;;;;;;;;;;
2022/04/14 04:23:32;;;;;;;35.50;9.80;;;;;;;9.19;50.79;99168.77;109383;1279;22380;-80
2022/04/14 04:26:40;;;;;;;;;;;;;;;;;;;;;
2022/04/14 04:29:15;;;;;;;21.70;9.40;;;;;;;9.67;50.86;99169.68;109244;1277;23226;-80
2022/04/14 04:32:06;;;;;;;20.10;8.50;;;;;;;9.78;50.73;99171.48;109385;1277;22321;-79
2022/04/14 04:34:35;;;;;;;18.60;8.50;;;;;;;9.92;50.74;99171.02;109346;1277;22492;-79
2022/04/14 04:37:05;;;;;;;18.60;7.40;;;;;;;10.05;50.58;99169.59;109358;1277;22366;-80
2022/04/14 04:39:57;;;;;;;18.70;7.70;;;;;;;10.22;50.59;99171.67;109406;1277;22360;-80
2022/04/14 04:43:18;;;;;;;;;;;;;;;;;;;;;
2022/04/14 04:46:10;;;;;;;15.30;6.10;;;;;;;10.62;50.41;99175.51;109564;1277;22389;-79
2022/04/14 04:48:40;;;;;;;17.20;6.20;;;;;;;10.71;50.41;99168.60;109297;1277;23197;-80
2022/04/14 04:51:26;;;;;;;20.00;7.20;;;;;;;10.95;50.20;99183.28;109227;1277;22485;-80
2022/04/14 04:53:58;;;;;;;18.30;7.00;;;;;;;11.15;50.21;99172.26;109123;1279;22423;-80
2022/04/14 04:56:27;;;;;;;17.00;7.00;;;;;;;11.29;49.93;99178.64;109214;1279;22386;-80
2022/04/14 04:59:35;;;;;;;16.90;6.10;;;;;;;11.30;49.88;99181.06;109359;1277;22707;-81
2022/04/14 05:02:15;;;;;;;18.70;7.00;;;;;;;11.32;49.76;99173.64;106822;1278;22391;-79
2022/04/14 05:04:52;;;;;;;15.70;6.80;;;;;;;11.52;49.65;99178.21;109341;1277;22354;-80
2022/04/14 05:07:21;;;;;;;20.10;7.50;;;;;;;11.68;49.49;99177.95;109360;1277;22603;-80
2022/04/14 05:09:51;;;;;;;20.70;7.50;;;;;;;11.83;49.38;99183.58;109339;1277;22486;-81
2022/04/14 05:12:25;;;;;;;16.60;7.40;;;;;;;12.02;49.28;99191.98;109332;1277;23168;-80
2022/04/14 05:18:44;;;;;;;17.70;7.20;;;;;;;12.20;49.37;99192.05;109222;1277;22544;-81
2022/04/14 05:21:19;;;;;;;20.60;7.30;;;;;;;12.28;49.13;99190.75;109304;1277;22428;-81
2022/04/14 05:23:56;;;;;;;;;;;;;;;;;;;;;
2022/04/14 05:26:23;;;;;;;21.20;8.10;;;;;;;12.40;49.17;99196.35;109285;1277;22547;-82
2022/04/14 05:29:03;;;;;;;18.60;7.30;;;;;;;12.51;49.11;99196.05;109384;1277;22194;-81
2022/04/14 05:31:33;;;;;;;17.20;7.40;;;;;;;12.59;48.98;99193.49;109218;1277;23277;-82
2022/04/14 05:34:03;;;;;;;19.00;7.20;;;;;;;12.75;49.08;99197.93;109321;1277;22601;-81
2022/04/14 05:36:30;;;;;;;20.10;7.50;;;;;;;12.92;48.98;99195.65;109197;1278;22505;-81
2022/04/14 05:38:57;;;;;;;18.80;6.80;;;;;;;13.09;48.77;99196.45;109151;1277;22402;-81
2022/04/14 05:41:24;;;;;;;17.30;6.80;;;;;;;13.31;48.78;99194.53;109335;1277;22620;-81
2022/04/14 05:44:18;;;;;;;15.40;7.90;;;;;;;13.48;48.74;99200.85;108969;1279;22526;-81
2022/04/14 05:47:07;;;;;;;;;;;;;;;;;;;;;
2022/04/14 05:49:42;;;;;;;20.30;7.90;;;;;;;13.91;48.60;99199.59;109371;1277;23238;-82
2022/04/14 05:52:09;;;;;;;17.80;7.50;;;;;;;14.07;48.45;99193.39;109449;1277;23331;-81
2022/04/14 05:54:46;;;;;;;17.40;7.60;;;;;;;14.25;48.44;99190.08;109387;1277;23011;-82
2022/04/14 05:57:22;;;;;;;24.60;7.60;;;;;;;14.43;48.20;99186.98;109521;1277;22537;-82
2022/04/14 05:59:49;;;;;;;21.40;7.80;;;;;;;14.59;48.20;99180.43;109162;1277;22487;-83
2022/04/14 06:02:17;;;;;;;23.10;7.70;;;;;;;14.71;48.12;99179.53;109272;1278;22394;-81
2022/04/14 06:04:44;;;;;;;20.90;8.30;;;;;;;14.80;48.00;99179.63;109208;1277;23184;-82
2022/04/14 06:07:11;;;;;;;20.60;7.70;;;;;;;14.94;47.92;99179.34;109451;1277;22452;-82
2022/04/14 06:09:38;;;;;;;23.50;7.40;;;;;;;15.04;47.98;99174.06;109294;1276;22490;-81
2022/04/14 06:12:08;;;;;;;19.20;7.30;;;;;;;15.10;47.83;99170.83;109538;1276;22539;-81
2022/04/14 06:14:38;;;;;;;16.40;7.90;;;;;;;15.17;47.81;99170.96;109126;1277;22573;-82
2022/04/14 06:17:05;;;;;;;16.30;7.10;;;;;;;15.24;47.77;99176.09;108957;1278;22631;-83
2022/04/14 06:19:32;;;;;;;21.50;7.40;;;;;;;15.31;47.59;99179.02;108870;1277;22447;-83
2022/04/14 06:22:03;;;;;;;16.30;6.50;;;;;;;15.39;47.46;99179.04;109002;1276;22460;-81
2022/04/14 06:24:35;;;;;;;19.30;7.30;;;;;;;15.42;47.44;99175.73;108895;1279;22626;-82
2022/04/14 06:27:03;;;;;;;18.10;7.30;;;;;;;15.46;47.50;99175.92;108867;1277;22469;-80
2022/04/14 06:29:30;;;;;;;20.70;7.40;;;;;;;15.47;47.55;99173.31;109455;1277;22492;-80
2022/04/14 06:31:57;;;;;;;24.30;7.10;;;;;;;15.61;47.49;99172.21;108778;1277;22460;-82
2022/04/14 06:34:27;;;;;;;19.60;7.70;;;;;;;15.74;47.47;99169.95;108818;1277;22508;-80
2022/04/14 06:36:54;;;;;;;14.00;6.50;;;;;;;15.87;47.50;99174.02;108967;1277;22981;-81
2022/04/14 06:39:21;;;;;;;17.80;7.20;;;;;;;15.99;47.42;99169.60;109191;1277;22610;-84
2022/04/14 06:41:48;;;;;;;26.90;8.60;;;;;;;16.17;47.52;99175.17;108881;1278;22665;-82
2022/04/14 06:44:19;;;;;;;36.80;9.60;;;;;;;16.38;47.50;99172.05;108897;1277;22620;-82
2022/04/14 06:46:51;;;;;;;22.40;8.70;;;;;;;16.56;47.58;99175.39;108879;1277;22452;-80
2022/04/14 06:49:19;;;;;;;19.60;8.40;;;;;;;16.71;47.57;99176.11;109113;1278;22461;-79
2022/04/14 06:51:46;;;;;;;18.20;7.20;;;;;;;16.81;47.26;99174.16;109025;1277;22458;-81
2022/04/14 06:54:18;;;;;;;18.30;7.40;;;;;;;16.85;47.12;99177.91;109183;1277;22630;-81
2022/04/14 06:56:46;;;;;;;14.70;6.40;;;;;;;16.81;46.89;99179.15;109269;1277;22405;-81
2022/04/14 06:59:13;;;;;;;17.70;5.60;;;;;;;16.73;46.79;99184.71;109483;1277;22407;-82
2022/04/14 07:01:40;;;;;;;17.00;5.80;;;;;;;16.64;46.67;99184.22;109564;1277;22396;-80
2022/04/14 07:04:07;;;;;;;16.30;6.10;;;;;;;16.58;46.55;99185.47;109357;1277;22361;-81
2022/04/14 07:06:47;;;;;;;22.70;6.10;;;;;;;16.48;46.56;99180.30;109365;1277;22730;-82
2022/04/14 07:09:24;;;;;;;22.30;6.20;;;;;;;16.43;46.28;99177.89;109427;1277;22354;-82
2022/04/14 07:11:51;;;;;;;16.20;5.50;;;;;;;16.47;46.53;99177.48;109561;1277;23081;-81
2022/04/14 07:14:21;;;;;;;14.00;5.20;;;;;;;16.62;46.61;99178.81;109573;1277;22151;-81
2022/04/14 07:16:49;;;;;;;14.50;5.40;;;;;;;16.80;46.36;99179.79;109396;1277;22401;-81
2022/04/14 07:19:25;;;;;;;22.60;6.90;;;;;;;16.99;46.59;99179.34;109576;1277;22421;-81
2022/04/14 07:21:53;;;;;;;13.90;5.10;;;;;;;17.22;46.58;99176.29;109305;1279;22228;-81
2022/04/14 07:24:21;;;;;;;16.40;6.20;;;;;;;17.48;46.09;99174.56;109488;1277;22361;-81
2022/04/14 07:26:48;;;;;;;19.00;5.60;;;;;;;17.52;46.10;99176.31;109582;1277;23055;-81
2022/04/14 07:29:15;;;;;;;16.40;4.80;;;;;;;17.65;45.83;99175.60;109391;1277;23145;-81
2022/04/14 07:31:42;;;;;;;14.10;5.20;;;;;;;17.68;45.80;99178.81;109240;1278;22514;-82
2022/04/14 07:34:10;;;;;;;13.80;5.30;;;;;;;17.79;46.07;99177.15;109351;1278;23134;-82
2022/04/14 07:36:40;;;;;;;13.20;5.10;;;;;;;17.93;46.08;99175.37;109400;1278;22500;-82
2022/04/14 07:39:15;;;;;;;15.30;4.70;;;;;;;18.10;46.02;99181.32;109443;1276;22345;-82
2022/04/14 07:41:42;;;;;;;12.40;4.70;;;;;;;18.28;45.93;99186.23;109384;1276;22243;-86
2022/04/14 07:44:09;;;;;;;10.90;5.30;;;;;;;18.29;44.62;99182.86;109594;1276;22471;-82
2022/04/14 07:46:38;;;;;;;16.70;5.20;;;;;;;18.20;45.31;99182.55;109603;1276;22412;-82
2022/04/14 07:49:07;;;;;;;12.10;5.10;;;;;;;18.32;45.55;99178.92;109373;1277;22335;-81
2022/04/14 07:51:46;;;;;;;15.10;5.40;;;;;;;18.60;45.60;99174.98;109364;1277;22249;-81
2022/04/14 07:54:16;;;;;;;12.00;4.20;;;;;;;18.94;45.61;99166.07;109364;1277;22465;-82
2022/04/14 07:56:47;;;;;;;14.00;4.60;;;;;;;19.11;44.96;99168.17;109387;1277;22579;-82
2022/04/14 07:59:38;;;;;;;43.60;6.00;;;;;;;19.24;45.05;99167.23;109280;1279;22427;-82
2022/04/14 08:02:13;;;;;;;15.90;4.50;;;;;;;19.39;44.88;99164.45;109344;1277;22403;-83
2022/04/14 08:04:51;;;;;;;13.00;4.80;;;;;;;19.43;44.76;99159.76;109394;1276;22395;-83
2022/04/14 08:07:40;;;;;;;11.90;4.40;;;;;;;19.61;44.88;99159.46;109422;1276;23066;-85
2022/04/14 08:10:18;;;;;;;9.50;4.20;;;;;;;19.71;44.31;99160.36;109322;1276;22417;-84
2022/04/14 08:13:07;;;;;;;11.30;4.30;;;;;;;19.63;44.14;99162.83;109359;1276;23240;-86
2022/04/14 08:15:49;;;;;;;9.10;4.10;;;;;;;19.74;44.36;99155.23;109345;1276;22603;-83
2022/04/14 08:18:59;;;;;;;;;;;;;;;;;;;;;
2022/04/14 08:21:57;;;;;;;10.20;4.00;;;;;;;19.87;44.03;99155.02;109554;1276;22399;-85
2022/04/14 08:24:43;;;;;;;10.50;4.10;;;;;;;20.12;44.10;99153.67;109533;1276;22526;-83
2022/04/14 08:27:33;;;;;;;8.70;3.60;;;;;;;20.44;43.97;99148.42;109335;1276;22573;-83
2022/04/14 08:30:35;;;;;;;10.50;3.80;;;;;;;20.70;43.55;99154.77;109533;1276;23297;-87
2022/04/14 08:33:27;;;;;;;;;;;;;;;;;;;;;
2022/04/14 08:35:59;;;;;;;12.70;4.10;;;;;;;20.86;43.39;99150.20;109300;1276;22564;-83
2022/04/14 08:38:35;;;;;;;11.10;3.80;;;;;;;20.95;43.27;99144.77;109271;1278;23057;-83
2022/04/14 08:41:45;;;;;;;14.00;3.80;;;;;;;21.07;43.36;99147.34;109381;1276;22426;-90
2022/04/14 08:44:24;;;;;;;11.00;3.80;;;;;;;21.18;42.36;99139.62;109311;1276;22874;-84
2022/04/14 08:47:35;;;;;;;12.70;3.80;;;;;;;21.22;42.59;99138.22;109266;1276;23270;-84
2022/04/14 08:50:40;;;;;;;;;;;;;;;;;;;;;
2022/04/14 08:53:37;;;;;;;12.30;3.80;;;;;;;21.39;42.50;99137.17;109055;1276;22524;-83
2022/04/14 08:56:46;;;;;;;16.60;4.20;;;;;;;21.43;42.33;99129.89;109495;1276;23106;-83
2022/04/14 09:02:45;;;;;;;14.60;3.80;;;;;;;21.61;42.32;99131.60;109377;1277;22422;-84
2022/04/14 09:05:26;;;;;;;10.40;3.70;;;;;;;21.84;42.31;99129.05;109375;1276;22512;-88
2022/04/14 09:08:10;;;;;;;11.20;3.70;;;;;;;22.06;42.20;99125.87;109463;1276;22540;-86
2022/04/14 09:10:38;;;;;;;9.00;3.30;;;;;;;22.21;42.22;99121.73;109498;1276;22270;-84
2022/04/14 09:13:34;;;;;;;10.80;3.90;;;;;;;22.28;42.10;99114.77;109407;1276;22318;-84
2022/04/14 09:16:15;;;;;;;9.00;3.30;;;;;;;22.38;41.53;99114.05;109538;1276;22507;-84
2022/04/14 09:18:59;;;;;;;8.60;2.90;;;;;;;22.38;41.53;99118.48;109240;1276;23191;-84
2022/04/14 09:21:56;;;;;;;10.90;3.40;;;;;;;22.29;41.47;99113.86;109278;1276;22461;-83
2022/04/14 09:24:48;;;;;;;9.80;3.00;;;;;;;22.46;41.57;99112.45;109246;1276;22441;-83
2022/04/14 09:27:44;;;;;;;28.90;4.60;;;;;;;22.62;41.30;99112.45;109323;1276;22446;-85
2022/04/14 09:30:18;;;;;;;17.50;3.70;;;;;;;22.69;41.16;99108.20;109318;1278;23238;-82
2022/04/14 09:32:45;;;;;;;10.90;3.10;;;;;;;22.69;40.77;99103.05;109356;1278;22477;-85
2022/04/14 09:35:25;;;;;;;13.50;3.00;;;;;;;22.55;40.54;99098.20;109247;1277;22428;-84
2022/04/14 09:38:24;;;;;;;14.90;3.50;;;;;;;22.51;40.97;99099.47;109334;1277;22529;-85
2022/04/14 09:40:52;;;;;;;10.70;3.00;;;;;;;22.68;40.09;99102.59;109089;1277;23716;-83
2022/04/14 09:43:21;;;;;;;8.90;3.30;;;;;;;22.47;39.87;99098.28;109251;1277;22463;-85
2022/04/14 09:45:50;;;;;;;9.90;3.50;;;;;;;22.50;40.05;99099.98;109417;1276;22426;-83
2022/04/14 09:48:29;;;;;;;8.40;3.10;;;;;;;22.52;40.06;99096.42;109372;1277;22693;-83
2022/04/14 09:51:02;;;;;;;9.90;3.10;;;;;;;22.76;39.98;99088.23;109354;1277;22460;-83
2022/04/14 09:53:30;;;;;;;9.70;3.30;;;;;;;23.00;39.51;99091.66;109509;1276;22188;-82
2022/04/14 09:56:02;;;;;;;9.80;3.50;;;;;;;23.12;39.90;99085.76;109288;1276;22431;-84
2022/04/14 09:58:31;;;;;;;8.10;2.90;;;;;;;23.08;39.37;99085.98;109467;1276;22558;-87
2022/04/14 10:00:58;;;;;;;10.20;3.40;;;;;;;23.01;39.20;99086.39;109318;1276;22426;-83
2022/04/14 10:03:30;;;;;;;9.30;2.80;;;;;;;22.84;38.73;99080.46;109286;1276;22480;-84
2022/04/14 10:05:58;;;;;;;8.00;3.50;;;;;;;22.85;38.92;99079.70;109348;1276;22500;-85
2022/04/14 10:08:29;;;;;;;11.00;3.60;;;;;;;22.95;38.99;99083.96;109308;1276;22462;-81
2022/04/14 10:11:08;;;;;;;13.70;3.50;;;;;;;23.12;39.16;99075.26;109489;1276;22430;-83
2022/04/14 10:14:00;;;;;;;;;;;;;;;;;;;;;
2022/04/14 10:16:46;;;;;;;9.50;2.90;;;;;;;23.58;36.80;99075.65;109316;1277;22473;-83
2022/04/14 10:19:19;;;;;;;9.40;3.30;;;;;;;23.21;38.17;99078.14;109366;1277;22396;-84
2022/04/14 10:21:55;;;;;;;9.50;3.00;;;;;;;23.01;36.72;99085.10;109446;1276;22452;-81
2022/04/14 10:24:24;;;;;;;9.30;3.20;;;;;;;23.03;38.11;99081.66;109288;1276;22587;-83
2022/04/14 10:26:55;;;;;;;8.80;2.90;;;;;;;23.30;37.80;99080.27;109381;1276;22474;-83
2022/04/14 10:29:22;;;;;;;10.60;3.50;;;;;;;23.46;37.90;99079.31;109406;1276;23195;-82
2022/04/14 10:32:19;;;;;;;8.10;2.80;;;;;;;23.73;37.96;99073.09;109180;1276;22434;-82
2022/04/14 10:34:48;;;;;;;8.10;2.80;;;;;;;23.95;37.69;99063.52;109487;1276;22497;-82
2022/04/14 10:37:36;;;;;;;7.70;3.20;;;;;;;24.24;38.08;99062.90;109541;1276;22414;-83
2022/04/14 10:40:04;;;;;;;5.80;2.40;;;;;;;24.49;37.56;99061.83;109493;1276;22473;-83
2022/04/14 10:42:32;;;;;;;8.00;2.80;;;;;;;24.64;37.28;99058.23;109402;1276;22176;-82
2022/04/14 10:45:22;;;;;;;7.70;2.70;;;;;;;24.48;36.89;99059.22;109439;1276;22416;-82
2022/04/14 10:47:49;;;;;;;12.20;3.00;;;;;;;24.39;36.94;99057.45;109399;1277;22446;-82
2022/04/14 10:50:34;;;;;;;9.80;2.60;;;;;;;24.58;37.59;99056.81;109378;1277;22473;-82
2022/04/14 10:53:13;;;;;;;9.30;2.40;;;;;;;24.89;36.60;99056.73;109398;1276;23243;-83
2022/04/14 10:55:57;;;;;;;7.40;2.70;;;;;;;24.66;35.77;99061.85;109350;1278;22581;-82
2022/04/14 10:58:36;;;;;;;12.70;2.50;;;;;;;24.64;36.70;99052.10;109480;1277;23048;-82
2022/04/14 11:01:12;;;;;;;7.00;2.50;;;;;;;24.87;36.46;99057.23;109520;1277;23134;-82
2022/04/14 11:03:50;;;;;;;8.00;2.70;;;;;;;24.65;35.99;99060.08;109424;1277;22958;-82
2022/04/14 11:06:50;;;;;;;9.40;2.70;;;;;;;24.38;36.31;99062.23;109236;1277;22594;-83
2022/04/14 11:09:45;;;;;;;7.20;2.40;;;;;;;24.47;35.37;99062.24;109531;1277;22345;-82
2022/04/14 11:12:44;;;;;;;7.70;2.30;;;;;;;24.71;36.01;99059.70;109442;1277;22388;-83
2022/04/14 11:15:29;;;;;;;7.90;2.40;;;;;;;24.91;35.62;99061.83;109554;1277;22410;-82
2022/04/14 11:18:07;;;;;;;7.00;2.60;;;;;;;24.91;35.52;99059.57;109273;1277;22417;-82
2022/04/14 11:20:35;;;;;;;7.70;2.20;;;;;;;24.93;35.71;99056.46;109385;1277;23199;-83
2022/04/14 11:23:18;;;;;;;6.10;2.30;;;;;;;24.95;35.24;99058.90;109421;1278;22455;-81
2022/04/14 11:25:49;;;;;;;7.40;2.80;;;;;;;25.10;35.78;99057.88;109196;1277;22425;-81
2022/04/14 11:28:22;;;;;;;11.10;2.90;;;;;;;25.27;36.00;99053.70;109392;1278;23064;-82
2022/04/14 11:30:51;;;;;;;6.50;2.60;;;;;;;25.46;35.70;99051.48;109168;1277;22460;-82
2022/04/14 11:33:30;;;;;;;7.30;3.10;;;;;;;25.65;35.31;99048.78;109386;1278;23167;-81
2022/04/14 11:36:17;;;;;;;8.00;2.60;;;;;;;25.82;35.36;99046.48;109259;1277;22396;-82
2022/04/14 11:39:08;;;;;;;6.30;2.60;;;;;;;25.65;34.49;99046.59;109452;1278;22978;-81
2022/04/14 11:41:46;;;;;;;7.60;2.60;;;;;;;25.58;34.52;99043.04;109446;1278;22495;-82
2022/04/14 11:44:52;;;;;;;;;;;;;;;;;;;;;
2022/04/14 11:47:19;;;;;;;7.10;2.90;;;;;;;25.50;34.61;99044.42;109408;1279;22765;-82
2022/04/14 11:49:49;;;;;;;7.20;3.00;;;;;;;25.47;33.79;99047.95;109552;1277;23155;-83
2022/04/14 11:52:21;;;;;;;8.90;2.80;;;;;;;25.45;34.69;99041.27;109414;1279;22454;-81
2022/04/14 11:54:55;;;;;;;6.80;2.60;;;;;;;25.56;34.76;99035.77;109430;1278;22201;-82
2022/04/14 11:57:33;;;;;;;9.30;2.70;;;;;;;25.97;35.01;99033.91;109428;1277;22442;-82
2022/04/14 12:00:19;;;;;;;5.70;2.50;;;;;;;26.06;34.28;99030.77;109393;1278;22411;-82
2022/04/14 12:03:09;;;;;;;7.40;3.00;;;;;;;25.66;33.98;99037.89;109236;1277;22479;-82
2022/04/14 12:05:49;;;;;;;9.40;2.70;;;;;;;25.56;34.72;99036.40;109421;1277;22534;-82
2022/04/14 12:08:20;;;;;;;6.70;2.50;;;;;;;25.62;34.54;99035.86;109522;1276;22433;-82
2022/04/14 12:10:50;;;;;;;9.20;2.60;;;;;;;25.82;34.58;99032.50;109465;1277;22466;-82
2022/04/14 12:13:24;;;;;;;7.10;2.80;;;;;;;25.92;34.38;99029.61;109261;1276;22420;-82
2022/04/14 12:16:33;;;;;;;;;;;;;;;;;;;;;
2022/04/14 12:19:06;;;;;;;9.20;2.60;;;;;;;25.89;34.10;99022.74;108665;1284;22525;-82
2022/04/14 12:21:52;;;;;;;;;;;;;;;;;;;;;
2022/04/14 12:24:23;;;;;;;6.80;2.70;;;;;;;25.93;34.28;99030.11;108561;1284;22479;-82
2022/04/14 12:27:08;;;;;;;18.00;12.50;;;;;;;26.05;34.09;99026.38;108508;1284;22547;-83
2022/04/14 12:30:04;;;;;;;;;;;;;;;;;;;;;
2022/04/14 12:32:47;;;;;;;8.50;2.80;;;;;;;26.29;34.26;99022.52;108640;1284;22497;-82
2022/04/14 12:35:33;;;;;;;8.20;2.70;;;;;;;26.43;34.04;99012.26;108375;1284;22486;-82
2022/04/14 12:38:47;;;;;;;6.40;2.40;;;;;;;26.61;34.00;99011.92;108563;1284;22614;-84
2022/04/14 12:41:46;;;;;;;8.70;2.90;;;;;;;26.84;33.96;99018.13;108550;1284;22454;-82
2022/04/14 12:44:20;;;;;;;7.10;2.70;;;;;;;26.89;33.53;99007.60;108388;1285;22512;-83
2022/04/14 12:46:52;;;;;;;6.70;2.70;;;;;;;26.93;33.71;98999.66;108453;1284;22204;-82
2022/04/14 12:50:23;;;;;;;;;;;;;;;;;;;;;
2022/04/14 12:53:13;;;;;;;;;;;;;;;;;;;;;
2022/04/14 12:56:14;;;;;;;9.00;3.00;;;;;;;27.22;33.66;98989.86;108758;1282;22605;-82
2022/04/14 13:00:00;;;;;;;;;;;;;;;;;;;;;
2022/04/14 13:03:44;;;;;;;;;;;;;;;;;;;;;